CheckWX is a tool to help pilots better visualize weather data.  It is not intended as a substitute for an official pre-flight weather briefing.

15:47:10 UTC

VTPB METAR
Phetchabun Airport
Thailand
Current

5 hours ago

VTPB 281100Z 26003KT 220V310 9999 VCSH FEW018CB SCT035 35/23 Q1005 TEMPO 5000 TSRA
Observed
May-28 @ 11:00 UTC
Wind
  • 260° at 3 KTS
Visibility
10,000+ meters
Flight Rules
VFR
Conditions
Area Showers
Cloud Levels
  • Few at 1,800' AGL
  • Scattered at 3,500' AGL
Temperature
35°C / 95°F
Dewpoint
23°C / 73°F
Humidity
50%
Altimeter
29.68" Hg
Pressure
1004.92 hPa
Previous

6 hours ago

VTPB 281000Z 25004KT 200V300 9999 VCSH FEW018CB SCT035 37/21 Q1004 NOSIG
Observed
May-28 @ 10:00 UTC
Wind
  • 250° at 4 KTS
Visibility
10,000+ meters
Flight Rules
VFR
Conditions
Area Showers
Cloud Levels
  • Few at 1,800' AGL
  • Scattered at 3,500' AGL
Temperature
37°C / 99°F
Dewpoint
21°C / 70°F
Humidity
39%
Altimeter
29.65" Hg
Pressure
1003.92 hPa
Previous

7 hours ago

VTPB 280900Z 28004KT 200V330 9999 FEW018CB SCT035 36/21 Q1004 RETS NOSIG
Observed
May-28 @ 09:00 UTC
Wind
  • 280° at 4 KTS
Visibility
10,000+ meters
Flight Rules
VFR
Cloud Levels
  • Few at 1,800' AGL
  • Scattered at 3,500' AGL
Temperature
36°C / 97°F
Dewpoint
21°C / 70°F
Humidity
42%
Altimeter
29.65" Hg
Pressure
1003.92 hPa